Magnum 1 — CRLV — position and weather

sailwx.info

Track history (hours):
 
Tides and Currents Weather Stations Pressure Air Temp Water Temp Dewpoint Dewpoint Depression Visibility Wind Speed Wind Dir Waves Ship Positions

Magnum 1

Last reported at 2016-Aug-17 17:06 UTC. Time now 2016-Aug-27 09:50 UTC.
Position N 38°41' W 009°13'.
Warning: this ship's position is 9 days out of date.

Length 11 m.

Type: Sailing vessel. MMSI: 263970000.

Date/timePositionNaut miles runAvg speedWind from/ knotsBaromVisibWave heightAir tempDewpointWater temp
2016-Aug-17 17:06N 38°41' W 009°13'3 4.9
2016-Aug-17 16:33N 38°41' W 009°16'30 5.9
2016-Aug-17 11:27N 38°12' W 009°04'6 6.5
2016-Aug-17 10:30N 38°07' W 009°01'7 7.0
2016-Aug-17 09:33N 38°01' W 008°57'5 5.4
2016-Aug-17 08:33N 37°57' W 008°52'1 0.6
2016-Aug-17 07:33N 37°57' W 008°52'0 0.0
2016-Aug-17 06:33N 37°57' W 008°52'0 0.0
2016-Aug-17 05:33N 37°57' W 008°52'0 0.0
2016-Aug-17 04:30N 37°57' W 008°52'0 0.0
2016-Aug-17 03:33N 37°57' W 008°52'0 0.0
2016-Aug-17 02:33N 37°57' W 008°52'  
Track history (hours):
 
Tides and Currents Weather Stations Pressure Air Temp Water Temp Dewpoint Dewpoint Depression Visibility Wind Speed Wind Dir Waves Ship Positions

Magnum 1

Last reported at 2016-Aug-17 17:06 UTC. Time now 2016-Aug-27 09:50 UTC.
Position N 38°41' W 009°13'.
Warning: this ship's position is 9 days out of date.

Length 11 m.

Type: Sailing vessel. MMSI: 263970000.

Date/timePositionNaut miles runAvg speedWind from/ knotsBaromVisibWave heightAir tempDewpointWater temp
2016-Aug-17 17:06N 38°41' W 009°13'3 4.9
2016-Aug-17 16:33N 38°41' W 009°16'30 5.9
2016-Aug-17 11:27N 38°12' W 009°04'6 6.5
2016-Aug-17 10:30N 38°07' W 009°01'7 7.0
2016-Aug-17 09:33N 38°01' W 008°57'5 5.4
2016-Aug-17 08:33N 37°57' W 008°52'1 0.6
2016-Aug-17 07:33N 37°57' W 008°52'0 0.0
2016-Aug-17 06:33N 37°57' W 008°52'0 0.0
2016-Aug-17 05:33N 37°57' W 008°52'0 0.0
2016-Aug-17 04:30N 37°57' W 008°52'0 0.0
2016-Aug-17 03:33N 37°57' W 008°52'0 0.0
2016-Aug-17 02:33N 37°57' W 008°52'  

Dump ship's entire track history